Time;durP1;ratioP1;P1;durP2;ratioP2;P2;SDS_P1;SDS_P2;PMS_P1;PMS_P2;Temp;Humidity;BMP_temperature;BMP_pressure;BME280_temperature;BME280_humidity;BME280_pressure;Samples;Min_cycle;Max_cycle;Signal;HPM_P1;HPM_P2
2021/01/09 00:01:19;;;;;;;10.90;8.37;;;;;;;-144.99;100.00;52566.31;5032909;28;20636;-78
2021/01/09 00:03:46;;;;;;;14.03;8.70;;;;;;;-144.99;100.00;52584.66;5031546;28;21142;-78
2021/01/09 00:06:12;;;;;;;15.73;8.53;;;;;;;-144.99;100.00;52603.00;5052480;22;20662;-75
2021/01/09 00:08:38;;;;;;;9.40;7.60;;;;;;;-144.99;100.00;52570.38;5043661;28;20637;-75
2021/01/09 00:11:05;;;;;;;11.93;9.30;;;;;;;-144.99;100.00;52582.63;5045938;28;20595;-73
2021/01/09 00:13:31;;;;;;;10.37;7.63;;;;;;;-144.99;100.00;52578.53;5051380;28;20633;-76
2021/01/09 00:15:57;;;;;;;11.30;8.23;;;;;;;-144.99;100.00;52570.38;5044925;28;20702;-78
2021/01/09 00:18:23;;;;;;;12.90;8.77;;;;;;;-144.99;100.00;52578.53;5044132;28;21465;-75
2021/01/09 00:20:51;;;;;;;12.23;9.30;;;;;;;-144.99;100.00;52582.63;5035827;28;21029;-73
2021/01/09 00:23:17;;;;;;;15.90;8.67;;;;;;;-144.99;100.00;52582.63;5034486;28;20644;-73
2021/01/09 00:25:43;;;;;;;14.27;10.03;;;;;;;-144.99;100.00;52562.25;5032823;28;20638;-74
2021/01/09 00:28:09;;;;;;;11.20;7.60;;;;;;;-144.99;100.00;52586.69;5032277;28;20761;-73
2021/01/09 00:30:35;;;;;;;10.35;8.38;;;;;;;-144.99;100.00;52609.13;4685350;28;9999812;-74
2021/01/09 00:33:02;;;;;;;12.23;8.70;;;;;;;-144.99;100.00;52609.13;5031867;28;20297;-74
2021/01/09 00:35:28;;;;;;;14.20;8.63;;;;;;;-144.99;100.00;52562.25;5031495;28;21018;-73
2021/01/09 00:37:55;;;;;;;12.60;9.40;;;;;;;-144.99;100.00;52578.53;5031558;28;20653;-73
2021/01/09 00:40:21;;;;;;;11.53;8.27;;;;;;;-144.99;100.00;52582.63;5038895;28;20694;-75
2021/01/09 00:42:47;;;;;;;14.63;9.23;;;;;;;-144.99;100.00;52574.47;5034484;28;20678;-76
2021/01/09 00:45:14;;;;;;;10.03;7.57;;;;;;;-144.99;100.00;52543.91;5039154;28;20727;-75
2021/01/09 00:47:40;;;;;;;11.10;8.63;;;;;;;-144.99;100.00;52566.31;5039297;28;20675;-75
2021/01/09 00:50:07;;;;;;;12.77;8.80;;;;;;;-144.99;100.00;52596.88;5033224;28;20617;-74
2021/01/09 00:52:33;;;;;;;10.97;8.37;;;;;;;-144.99;100.00;52582.63;5034610;28;20665;-75
2021/01/09 00:55:00;;;;;;;9.73;7.07;;;;;;;-144.99;100.00;52566.31;5033800;28;20624;-76
2021/01/09 00:57:27;;;;;;;13.80;10.03;;;;;;;-144.99;100.00;52576.50;5032620;28;20672;-75
2021/01/09 00:59:53;;;;;;;11.87;9.13;;;;;;;-144.99;100.00;52619.31;5033334;28;20617;-73
2021/01/09 01:02:19;;;;;;;11.23;8.13;;;;;;;-144.99;100.00;52594.84;5034111;28;20716;-75
2021/01/09 01:04:47;;;;;;;11.50;8.67;;;;;;;-144.99;100.00;52566.31;5034394;28;20635;-74
2021/01/09 01:07:13;;;;;;;11.63;8.73;;;;;;;-144.99;100.00;52576.50;5044735;28;20680;-74
2021/01/09 01:09:40;;;;;;;10.90;8.30;;;;;;;-144.99;100.00;52560.19;5040152;28;20736;-74
2021/01/09 01:12:07;;;;;;;15.03;7.77;;;;;;;-144.99;100.00;52564.28;5041679;28;20635;-72
2021/01/09 01:14:35;;;;;;;13.20;9.03;;;;;;;-144.99;100.00;52590.78;5040269;28;20687;-75
2021/01/09 01:17:01;;;;;;;9.07;7.70;;;;;;;-144.99;100.00;52545.94;5040271;28;20814;-73
2021/01/09 01:19:27;;;;;;;10.03;7.77;;;;;;;-144.99;100.00;52566.31;5037082;28;20643;-73
2021/01/09 01:21:53;;;;;;;12.57;8.63;;;;;;;-144.99;100.00;52545.94;5039798;28;20624;-73
2021/01/09 01:24:20;;;;;;;15.87;10.03;;;;;;;-144.99;100.00;52574.47;5040292;28;20628;-74
2021/01/09 01:26:46;;;;;;;13.77;8.40;;;;;;;-144.99;100.00;52584.66;5040625;28;20648;-73
2021/01/09 01:29:13;;;;;;;14.80;9.37;;;;;;;-144.99;100.00;52562.25;5039708;28;21134;-75
2021/01/09 01:31:40;;;;;;;12.63;9.40;;;;;;;-144.99;100.00;52556.13;5039157;28;20643;-74
2021/01/09 01:34:06;;;;;;;12.47;9.93;;;;;;;-144.99;100.00;52598.94;5036634;28;21079;-74
2021/01/09 01:36:32;;;;;;;12.70;8.80;;;;;;;-144.99;100.00;52607.09;5039501;28;20672;-74
2021/01/09 01:38:58;;;;;;;13.13;8.57;;;;;;;-144.99;100.00;52603.00;5040370;28;20649;-75
2021/01/09 01:41:29;;;;;;;13.90;9.67;;;;;;;-144.99;100.00;52533.69;5043713;28;20631;-77
2021/01/09 01:43:55;;;;;;;14.43;9.40;;;;;;;-144.99;100.00;52558.16;5042481;28;20627;-75
2021/01/09 01:46:23;;;;;;;10.57;8.07;;;;;;;-144.99;100.00;52600.97;5053552;28;20632;-77
2021/01/09 01:48:49;;;;;;;14.60;9.87;;;;;;;-144.99;100.00;52570.38;5020726;28;20717;-76
2021/01/09 01:51:16;;;;;;;13.40;9.23;;;;;;;-144.99;100.00;52603.00;5031816;28;20627;-75
2021/01/09 01:53:42;;;;;;;13.73;10.00;;;;;;;-144.99;100.00;52537.78;5039698;28;20731;-75
2021/01/09 01:56:08;;;;;;;10.67;8.50;;;;;;;-144.99;100.00;52627.47;5038562;28;20679;-75
2021/01/09 01:58:35;;;;;;;10.93;8.67;;;;;;;-144.99;100.00;52566.31;5037516;28;20632;-76
2021/01/09 02:01:01;;;;;;;10.47;8.13;;;;;;;-144.99;100.00;52596.88;5037187;28;20623;-74
2021/01/09 02:03:28;;;;;;;13.83;9.90;;;;;;;-144.99;100.00;52572.44;5035759;28;20625;-76
2021/01/09 02:06:01;;;;;;;12.57;8.93;;;;;;;-144.99;100.00;52533.69;5047045;28;20662;-74
2021/01/09 02:08:31;;;;;;;11.17;8.20;;;;;;;-144.99;100.00;52592.81;5037939;28;20699;-74
2021/01/09 02:11:02;;;;;;;13.57;8.13;;;;;;;-144.99;100.00;52580.59;5035153;28;20975;-75
2021/01/09 02:13:42;;;;;;;11.17;8.10;;;;;;;-144.99;100.00;52574.47;5040642;28;21060;-75
2021/01/09 02:16:10;;;;;;;10.97;8.20;;;;;;;-144.99;100.00;52603.00;5042697;28;20667;-75
2021/01/09 02:18:40;;;;;;;11.90;9.33;;;;;;;-144.99;100.00;52607.09;5040560;28;20631;-74
2021/01/09 02:21:18;;;;;;;19.30;9.07;;;;;;;-144.99;100.00;52580.59;5039480;28;20603;-75
2021/01/09 02:23:45;;;;;;;13.50;8.90;;;;;;;-144.99;100.00;52570.38;5039480;28;20632;-74
2021/01/09 02:26:12;;;;;;;12.33;9.20;;;;;;;-144.99;100.00;52588.75;5039288;28;20648;-74
2021/01/09 02:28:38;;;;;;;12.30;9.27;;;;;;;-144.99;100.00;52584.66;5039933;28;20986;-75
2021/01/09 02:31:05;;;;;;;14.50;9.83;;;;;;;-144.99;100.00;52586.69;5038589;28;20688;-76
2021/01/09 02:33:35;;;;;;;13.30;10.33;;;;;;;-144.99;100.00;52623.38;5040467;28;20613;-75
2021/01/09 02:36:02;;;;;;;12.57;10.07;;;;;;;-144.99;100.00;52572.44;5030090;28;21131;-75
2021/01/09 02:38:28;;;;;;;12.50;8.73;;;;;;;-144.99;100.00;52594.84;5047211;28;20621;-75
2021/01/09 02:40:55;;;;;;;12.83;8.87;;;;;;;-144.99;100.00;52570.38;5044044;28;20664;-75
2021/01/09 02:43:25;;;;;;;11.77;9.17;;;;;;;-144.99;100.00;52611.16;5038654;28;20656;-75
2021/01/09 02:45:52;;;;;;;13.33;8.37;;;;;;;-144.99;100.00;52556.13;5038007;28;20658;-75
2021/01/09 02:48:18;;;;;;;11.40;9.40;;;;;;;-144.99;100.00;52607.09;5037759;28;20667;-75
2021/01/09 02:50:44;;;;;;;16.20;10.30;;;;;;;-144.99;100.00;52580.59;5037858;28;20676;-75
2021/01/09 02:53:10;;;;;;;14.13;8.97;;;;;;;-144.99;100.00;52580.59;5039407;28;20632;-75
2021/01/09 02:55:36;;;;;;;13.90;8.93;;;;;;;-144.99;100.00;52576.50;5038326;28;20628;-74
2021/01/09 02:58:03;;;;;;;11.13;7.73;;;;;;;-144.99;100.00;52574.47;5037751;28;21241;-74
2021/01/09 03:00:32;;;;;;;14.60;9.37;;;;;;;-144.99;100.00;52574.47;5037968;28;21162;-74
2021/01/09 03:02:58;;;;;;;13.63;9.83;;;;;;;-144.99;100.00;52598.94;5036814;28;20634;-74
2021/01/09 03:05:24;;;;;;;13.03;9.30;;;;;;;-144.99;100.00;52578.53;5048781;28;20637;-77
2021/01/09 03:07:50;;;;;;;13.83;10.17;;;;;;;-144.99;100.00;52603.00;5032673;28;20660;-74
2021/01/09 03:10:17;;;;;;;12.43;9.73;;;;;;;-144.99;100.00;52550.00;5037902;28;20620;-74
2021/01/09 03:12:43;;;;;;;11.63;9.87;;;;;;;-144.99;100.00;52558.16;5043578;28;20616;-73
2021/01/09 03:15:11;;;;;;;11.13;8.67;;;;;;;-144.99;100.00;52615.25;5037049;28;20637;-74
2021/01/09 03:17:37;;;;;;;11.63;10.20;;;;;;;-144.99;100.00;52570.38;5036560;28;20762;-74
2021/01/09 03:20:04;;;;;;;11.43;7.80;;;;;;;-144.99;100.00;52594.84;5035562;28;20658;-74
2021/01/09 03:22:30;;;;;;;14.57;11.17;;;;;;;-144.99;100.00;52603.00;5037201;28;20619;-74
2021/01/09 03:24:57;;;;;;;14.00;10.40;;;;;;;-144.99;100.00;52545.94;5038097;28;20624;-74
2021/01/09 03:27:23;;;;;;;13.77;10.33;;;;;;;-144.99;100.00;52605.03;5033426;28;20649;-73
2021/01/09 03:29:49;;;;;;;13.97;8.90;;;;;;;-144.99;100.00;52584.66;5032420;28;20625;-73
2021/01/09 03:32:16;;;;;;;10.27;7.90;;;;;;;-144.99;100.00;52574.47;5033291;28;20647;-73
2021/01/09 03:34:45;;;;;;;12.47;9.33;;;;;;;-144.99;100.00;52574.47;5032342;28;20655;-73
2021/01/09 03:37:11;;;;;;;12.33;9.93;;;;;;;-144.99;100.00;52586.69;5035039;28;21264;-74
2021/01/09 03:39:37;;;;;;;13.67;10.23;;;;;;;-144.99;100.00;52574.47;5037355;28;20656;-74
2021/01/09 03:42:04;;;;;;;11.73;9.23;;;;;;;-144.99;100.00;52609.13;5039832;28;21190;-74
2021/01/09 03:44:30;;;;;;;11.37;9.20;;;;;;;-144.99;100.00;52543.91;5035821;28;21190;-75
2021/01/09 03:46:56;;;;;;;12.30;9.13;;;;;;;-144.99;100.00;52570.38;5036635;28;21045;-75
2021/01/09 03:49:26;;;;;;;13.53;9.83;;;;;;;-144.99;100.00;52603.00;5034566;28;20979;-76
2021/01/09 03:51:52;;;;;;;13.37;10.53;;;;;;;-144.99;100.00;52527.59;5038410;28;20635;-74
2021/01/09 03:54:18;;;;;;;11.37;8.73;;;;;;;-144.99;100.00;52564.28;5041604;28;20636;-74
2021/01/09 03:56:44;;;;;;;14.20;10.17;;;;;;;-144.99;100.00;52574.47;5043237;28;20672;-74
2021/01/09 03:59:10;;;;;;;13.93;9.43;;;;;;;-144.99;100.00;52627.47;5035587;28;20621;-74
2021/01/09 04:01:36;;;;;;;11.80;9.13;;;;;;;-144.99;100.00;52598.94;5035740;28;20621;-76
2021/01/09 04:04:03;;;;;;;13.17;10.50;;;;;;;-144.99;100.00;52605.03;5038320;28;20616;-74
2021/01/09 04:06:30;;;;;;;12.97;9.27;;;;;;;-144.99;100.00;52590.78;5044309;28;21166;-76
2021/01/09 04:08:56;;;;;;;10.90;9.23;;;;;;;-144.99;100.00;52570.38;5044545;28;20596;-77
2021/01/09 04:11:22;;;;;;;11.17;8.67;;;;;;;-144.99;100.00;52598.94;5050972;28;20617;-75
2021/01/09 04:13:50;;;;;;;13.37;9.97;;;;;;;-144.99;100.00;52578.53;5036279;28;20613;-75
2021/01/09 04:16:16;;;;;;;14.53;9.77;;;;;;;-144.99;100.00;52582.63;5037263;28;20656;-74
2021/01/09 04:18:42;;;;;;;12.50;8.17;;;;;;;-144.99;100.00;52574.47;5036567;28;21022;-74
2021/01/09 04:21:08;;;;;;;11.73;8.83;;;;;;;-144.99;100.00;52554.09;5037062;28;20682;-74
2021/01/09 04:23:35;;;;;;;12.33;8.47;;;;;;;-144.99;100.00;52594.84;5036189;28;20632;-75
2021/01/09 04:26:02;;;;;;;11.90;7.33;;;;;;;-144.99;100.00;52586.69;5036744;28;21224;-76
2021/01/09 04:28:28;;;;;;;17.47;13.00;;;;;;;-144.99;100.00;52594.84;5035948;28;20639;-74
2021/01/09 04:30:54;;;;;;;12.10;9.80;;;;;;;-144.99;100.00;52611.16;5036182;28;20632;-74
2021/01/09 04:33:20;;;;;;;18.57;11.60;;;;;;;-144.99;100.00;52554.09;5034287;28;21151;-75
2021/01/09 04:35:46;;;;;;;13.23;9.10;;;;;;;-144.99;100.00;52560.19;5035565;28;20629;-74
2021/01/09 04:38:12;;;;;;;9.93;7.40;;;;;;;-144.99;100.00;52588.75;5035388;28;20661;-75
2021/01/09 04:40:39;;;;;;;9.80;7.27;;;;;;;-144.99;100.00;52582.63;5042239;28;21277;-75
2021/01/09 04:43:06;;;;;;;10.00;7.97;;;;;;;-144.99;100.00;52586.69;5039166;28;20624;-75
2021/01/09 04:45:32;;;;;;;11.43;8.03;;;;;;;-144.99;100.00;52596.88;5038336;28;20624;-74
2021/01/09 04:47:59;;;;;;;13.23;10.37;;;;;;;-144.99;100.00;52554.09;5039210;28;20648;-74
2021/01/09 04:50:26;;;;;;;11.47;7.20;;;;;;;-144.99;100.00;52586.69;5038768;28;20633;-75
2021/01/09 04:52:53;;;;;;;10.77;7.60;;;;;;;-144.99;100.00;52590.78;5039722;28;20628;-75
2021/01/09 04:55:20;;;;;;;12.07;8.70;;;;;;;-144.99;100.00;52574.47;5040607;28;20999;-75
2021/01/09 04:57:47;;;;;;;13.23;8.87;;;;;;;-144.99;100.00;52562.25;5039668;28;20695;-75
2021/01/09 05:00:14;;;;;;;10.53;8.23;;;;;;;-144.99;100.00;52566.31;5041380;28;20947;-75
2021/01/09 05:02:41;;;;;;;10.77;9.33;;;;;;;-144.99;100.00;52568.34;5040265;28;20674;-75
2021/01/09 05:05:08;;;;;;;11.67;8.73;;;;;;;-144.99;100.00;52598.94;5046219;28;20805;-75
2021/01/09 05:07:36;;;;;;;12.17;8.50;;;;;;;-144.99;100.00;52570.38;5045089;28;20663;-74
2021/01/09 05:10:03;;;;;;;12.03;9.23;;;;;;;-144.99;100.00;52613.19;5038968;28;20636;-75
2021/01/09 05:12:33;;;;;;;16.83;11.23;;;;;;;-144.99;100.00;52566.31;5046558;28;20620;-76
2021/01/09 05:15:00;;;;;;;13.73;9.87;;;;;;;-144.99;100.00;52568.34;5039321;28;20629;-75
2021/01/09 05:17:27;;;;;;;12.50;9.23;;;;;;;-144.99;100.00;52541.84;5039085;28;20845;-76
2021/01/09 05:19:53;;;;;;;13.67;10.00;;;;;;;-144.99;100.00;52562.25;5038154;28;21172;-75
2021/01/09 05:22:20;;;;;;;13.00;8.77;;;;;;;-144.99;100.00;52572.44;5040627;28;20632;-75
2021/01/09 05:24:47;;;;;;;13.93;9.70;;;;;;;-144.99;100.00;52570.38;5040245;28;21185;-75
2021/01/09 05:27:17;;;;;;;11.70;8.90;;;;;;;-144.99;100.00;52631.53;5039226;28;20656;-75
2021/01/09 05:29:43;;;;;;;13.53;8.33;;;;;;;-144.99;100.00;52607.09;5039464;28;20628;-76
2021/01/09 05:32:10;;;;;;;14.70;9.80;;;;;;;-144.99;100.00;52564.28;5040097;28;20935;-76
2021/01/09 05:34:50;;;;;;;10.73;7.53;;;;;;;-144.99;100.00;52582.63;5038728;28;20625;-75
2021/01/09 05:37:19;;;;;;;12.00;9.17;;;;;;;-144.99;100.00;52582.63;5039261;28;21045;-75
2021/01/09 05:39:49;;;;;;;13.57;9.83;;;;;;;-144.99;100.00;52592.81;5039738;28;20636;-75
2021/01/09 05:42:16;;;;;;;10.97;8.17;;;;;;;-144.99;100.00;52598.94;5042774;28;20668;-76
2021/01/09 05:44:44;;;;;;;17.47;10.60;;;;;;;-144.99;100.00;52570.38;5040923;28;20624;-77
2021/01/09 05:47:11;;;;;;;11.93;8.10;;;;;;;-144.99;100.00;52607.09;5041964;28;20667;-75
2021/01/09 05:49:42;;;;;;;13.20;9.30;;;;;;;-144.99;100.00;52590.78;5038535;28;20702;-76
2021/01/09 05:52:09;;;;;;;12.10;9.13;;;;;;;-144.99;100.00;52586.69;5040951;28;20617;-75
2021/01/09 05:54:36;;;;;;;13.30;10.13;;;;;;;-144.99;100.00;52615.25;5038544;28;20667;-75
2021/01/09 05:57:03;;;;;;;14.27;9.07;;;;;;;-144.99;100.00;52598.94;5038788;28;20677;-75
2021/01/09 05:59:31;;;;;;;13.03;10.37;;;;;;;-144.99;100.00;52572.44;5038040;28;20616;-75
2021/01/09 06:01:59;;;;;;;15.67;11.30;;;;;;;-144.99;100.00;52584.66;5035879;28;21146;-74
2021/01/09 06:04:28;;;;;;;16.63;9.53;;;;;;;-144.99;100.00;52578.53;5041989;28;21029;-77
2021/01/09 06:07:05;;;;;;;12.03;9.00;;;;;;;-144.99;100.00;52611.16;5042250;28;20731;-75
2021/01/09 06:09:35;;;;;;;10.90;8.07;;;;;;;-144.99;100.00;52570.38;5066646;22;20722;-75
2021/01/09 06:12:06;;;;;;;16.23;10.10;;;;;;;-144.99;100.00;52598.94;5051238;28;20619;-75
2021/01/09 06:14:35;;;;;;;11.17;8.13;;;;;;;-144.99;100.00;52582.63;5051086;28;20632;-75
2021/01/09 06:17:02;;;;;;;12.20;8.83;;;;;;;-144.99;100.00;52560.19;5050898;28;20770;-75
2021/01/09 06:19:29;;;;;;;12.70;8.90;;;;;;;-144.99;100.00;52570.38;5032694;28;20652;-75
2021/01/09 06:21:56;;;;;;;17.00;9.63;;;;;;;-144.99;100.00;52598.94;5031640;28;20652;-74
2021/01/09 06:24:23;;;;;;;14.03;10.27;;;;;;;-144.99;100.00;52603.00;5030967;28;20657;-75
2021/01/09 06:26:50;;;;;;;14.67;10.43;;;;;;;-144.99;100.00;52517.41;5031115;28;20747;-75
2021/01/09 06:29:21;;;;;;;14.20;10.00;;;;;;;-144.99;100.00;52566.31;5029793;28;20687;-74
2021/01/09 06:31:51;;;;;;;17.13;11.63;;;;;;;-144.99;100.00;52594.84;5031256;28;20650;-75
2021/01/09 06:34:20;;;;;;;15.60;9.33;;;;;;;-144.99;100.00;52582.63;5029437;28;21011;-75
2021/01/09 06:36:53;;;;;;;15.77;11.43;;;;;;;-144.99;100.00;52560.19;5031081;28;20644;-75
2021/01/09 06:39:20;;;;;;;12.37;8.17;;;;;;;-144.99;100.00;52562.25;5018657;28;21070;-76
2021/01/09 06:41:48;;;;;;;14.83;9.97;;;;;;;-144.99;100.00;52582.63;5031649;28;20628;-75
2021/01/09 06:44:15;;;;;;;15.57;9.37;;;;;;;-144.99;100.00;52568.34;5035957;28;20639;-75
2021/01/09 06:46:42;;;;;;;13.33;9.67;;;;;;;-144.99;100.00;52586.69;5042068;28;20625;-78
2021/01/09 06:49:16;;;;;;;14.00;9.77;;;;;;;-144.99;100.00;52605.03;5034662;28;20665;-79
2021/01/09 06:51:45;;;;;;;13.23;10.63;;;;;;;-144.99;100.00;52568.34;5033409;28;20656;-78
2021/01/09 06:54:23;;;;;;;12.50;9.87;;;;;;;-144.99;100.00;52574.47;5032295;28;20648;-77
2021/01/09 06:56:52;;;;;;;13.43;9.20;;;;;;;-144.99;100.00;52576.50;5030870;28;20663;-78
2021/01/09 06:59:31;;;;;;;15.20;10.73;;;;;;;-144.99;100.00;52590.78;5031479;28;20706;-78
2021/01/09 07:02:12;;;;;;;14.17;10.30;;;;;;;-144.99;100.00;52560.19;5030804;28;20691;-78
2021/01/09 07:05:02;;;;;;;12.77;9.77;;;;;;;-144.99;100.00;52586.69;5028967;28;20747;-78
2021/01/09 07:07:36;;;;;;;16.17;9.77;;;;;;;-144.99;100.00;52562.25;5031304;28;20705;-77
2021/01/09 07:10:22;;;;;;;12.57;9.40;;;;;;;-144.99;100.00;52594.84;5030917;28;21057;-78
2021/01/09 07:12:56;;;;;;;11.83;8.53;;;;;;;-144.99;100.00;52629.50;5038930;28;20628;-77
2021/01/09 07:15:23;;;;;;;16.20;10.20;;;;;;;-144.99;100.00;52582.63;5030593;28;20641;-77
2021/01/09 07:17:55;;;;;;;16.47;11.23;;;;;;;-144.99;100.00;52558.16;5029262;28;21297;-77
2021/01/09 07:20:26;;;;;;;13.30;10.40;;;;;;;-144.99;100.00;52574.47;5029056;28;20664;-77
2021/01/09 07:22:53;;;;;;;13.00;9.07;;;;;;;-144.99;100.00;52562.25;5030692;28;20712;-78
2021/01/09 07:25:33;;;;;;;14.73;10.37;;;;;;;-144.99;100.00;52594.84;5031215;28;20628;-75
2021/01/09 07:28:01;;;;;;;15.63;9.37;;;;;;;-144.99;100.00;52558.16;5031244;28;21055;-75
2021/01/09 07:30:28;;;;;;;15.10;9.73;;;;;;;-144.99;100.00;52586.69;5030162;28;20636;-77
2021/01/09 07:32:55;;;;;;;15.80;9.80;;;;;;;-144.99;100.00;52578.53;5029666;28;20655;-76
2021/01/09 07:35:24;;;;;;;15.50;10.50;;;;;;;-144.99;100.00;52586.69;5030264;28;20660;-78
2021/01/09 07:37:54;;;;;;;18.27;10.53;;;;;;;-144.99;100.00;52562.25;5030698;28;20763;-77
2021/01/09 07:40:22;;;;;;;12.13;8.87;;;;;;;-144.99;100.00;52562.25;5030338;28;20621;-78
2021/01/09 07:42:50;;;;;;;13.67;10.30;;;;;;;-144.99;100.00;52566.31;5030830;28;20621;-78
2021/01/09 07:45:18;;;;;;;15.70;10.57;;;;;;;-144.99;100.00;52574.47;5031373;28;20667;-78
2021/01/09 07:47:46;;;;;;;15.63;11.13;;;;;;;-144.99;100.00;52592.81;5029579;28;20663;-79
2021/01/09 07:50:15;;;;;;;16.00;10.93;;;;;;;-144.99;100.00;52598.94;5028970;28;20684;-77
2021/01/09 07:52:42;;;;;;;16.23;11.07;;;;;;;-144.99;100.00;52588.75;5031045;28;20640;-76
2021/01/09 07:55:10;;;;;;;14.13;9.47;;;;;;;-144.99;100.00;52598.94;5033145;28;21155;-77
2021/01/09 07:57:39;;;;;;;15.70;9.70;;;;;;;-144.99;100.00;52566.31;5030157;28;20644;-77
2021/01/09 08:00:17;;;;;;;14.77;8.93;;;;;;;-144.99;100.00;52578.53;5045772;28;20624;-78
2021/01/09 08:02:46;;;;;;;13.90;10.77;;;;;;;-144.99;100.00;52598.94;5047878;28;20625;-78
2021/01/09 08:05:14;;;;;;;12.70;9.43;;;;;;;-144.99;100.00;52562.25;5049734;28;20609;-77
2021/01/09 08:07:42;;;;;;;13.53;9.93;;;;;;;-144.99;100.00;52554.09;5035534;28;20623;-76
2021/01/09 08:10:20;;;;;;;11.10;9.03;;;;;;;-144.99;100.00;52550.00;5041764;28;20652;-77
2021/01/09 08:12:47;;;;;;;10.10;7.47;;;;;;;-144.99;100.00;52554.09;5037806;28;20654;-76
2021/01/09 08:15:14;;;;;;;12.03;8.10;;;;;;;-144.99;100.00;52574.47;5041576;28;20768;-78
2021/01/09 08:17:41;;;;;;;10.30;9.20;;;;;;;-144.99;100.00;52558.16;5040432;28;20693;-76
2021/01/09 08:20:09;;;;;;;14.83;9.40;;;;;;;-144.99;100.00;52590.78;5033613;28;20736;-76
2021/01/09 08:22:37;;;;;;;12.80;9.50;;;;;;;-144.99;100.00;52562.25;5036047;28;20715;-76
2021/01/09 08:25:13;;;;;;;11.10;8.07;;;;;;;-144.99;100.00;52586.69;5035428;28;20621;-75
2021/01/09 08:27:43;;;;;;;13.60;10.27;;;;;;;-144.99;100.00;52615.25;5036219;28;20659;-77
2021/01/09 08:30:12;;;;;;;11.97;9.37;;;;;;;-144.99;100.00;52566.31;5033005;28;20907;-77
2021/01/09 08:32:38;;;;;;;13.07;8.93;;;;;;;-144.99;100.00;52598.94;5035645;28;20927;-77
2021/01/09 08:35:07;;;;;;;11.73;7.20;;;;;;;-144.99;100.00;52562.25;5033822;28;20639;-77
2021/01/09 08:37:33;;;;;;;13.33;8.70;;;;;;;-144.99;100.00;52592.81;5021528;28;20656;-77
2021/01/09 08:40:09;;;;;;;11.30;7.00;;;;;;;-144.99;100.00;52598.94;5034145;28;20732;-78
2021/01/09 08:42:35;;;;;;;10.00;7.87;;;;;;;-144.99;100.00;52568.34;5035240;28;20631;-78
2021/01/09 08:45:01;;;;;;;11.43;7.87;;;;;;;-144.99;100.00;52609.13;5034590;28;20641;-78
2021/01/09 08:47:28;;;;;;;13.67;9.57;;;;;;;-144.99;100.00;52603.00;5034408;28;20671;-76
2021/01/09 08:49:58;;;;;;;11.70;8.40;;;;;;;-144.99;100.00;52590.78;5032552;28;20707;-78
2021/01/09 08:52:27;;;;;;;15.30;9.67;;;;;;;-144.99;100.00;52560.19;5031746;28;20687;-78
2021/01/09 08:54:54;;;;;;;11.73;8.50;;;;;;;-144.99;100.00;52598.94;5042970;28;20686;-78
2021/01/09 08:57:21;;;;;;;16.53;11.77;;;;;;;-144.99;100.00;52554.09;5037004;28;20653;-77
2021/01/09 08:59:48;;;;;;;16.53;10.57;;;;;;;-144.99;100.00;52574.47;5034623;28;21000;-77
2021/01/09 09:02:19;;;;;;;12.50;9.30;;;;;;;-144.99;100.00;52594.84;5035165;28;20770;-78
2021/01/09 09:04:47;;;;;;;14.03;9.63;;;;;;;-144.99;100.00;52590.78;5032162;28;20625;-77
2021/01/09 09:07:19;;;;;;;15.23;9.20;;;;;;;-144.99;100.00;52578.53;5033834;28;20770;-77
2021/01/09 09:09:47;;;;;;;14.13;10.67;;;;;;;-144.99;100.00;52550.00;5033764;28;20662;-78
2021/01/09 09:12:23;;;;;;;14.30;10.20;;;;;;;-144.99;100.00;52578.53;5034154;28;20631;-78
2021/01/09 09:14:56;;;;;;;14.63;9.10;;;;;;;-144.99;100.00;52574.47;5034442;28;20635;-79
2021/01/09 09:17:24;;;;;;;14.43;9.80;;;;;;;-144.99;100.00;52615.25;5034748;28;20655;-79
2021/01/09 09:19:50;;;;;;;13.67;8.93;;;;;;;-144.99;100.00;52578.53;5032159;28;20671;-77
2021/01/09 09:22:28;;;;;;;12.17;9.73;;;;;;;-144.99;100.00;52594.84;5035918;28;21265;-79
2021/01/09 09:24:55;;;;;;;12.97;9.57;;;;;;;-144.99;100.00;52607.09;5034731;28;20632;-79
2021/01/09 09:27:22;;;;;;;15.50;9.07;;;;;;;-144.99;100.00;52625.44;5035942;28;20700;-79
2021/01/09 09:29:49;;;;;;;14.43;10.57;;;;;;;-144.99;100.00;52558.16;5033600;28;20656;-79
2021/01/09 09:32:23;;;;;;;17.33;11.20;;;;;;;-144.99;100.00;52578.53;5036095;28;20639;-78
2021/01/09 09:34:49;;;;;;;17.33;11.17;;;;;;;-144.99;100.00;52590.78;5033163;28;20961;-80
2021/01/09 09:37:15;;;;;;;17.10;12.93;;;;;;;-144.99;100.00;52615.25;5037591;28;20657;-76
2021/01/09 09:39:41;;;;;;;13.20;10.17;;;;;;;-144.99;100.00;52562.25;5033356;28;21308;-78
2021/01/09 09:42:09;;;;;;;14.50;10.70;;;;;;;-144.99;100.00;52566.31;5034497;28;21371;-77
2021/01/09 09:44:38;;;;;;;15.00;10.00;;;;;;;-144.99;100.00;52615.25;5034534;28;21143;-79
2021/01/09 09:47:05;;;;;;;13.97;9.67;;;;;;;-144.99;100.00;52596.88;5037158;28;20624;-78
2021/01/09 09:49:34;;;;;;;14.60;9.17;;;;;;;-144.99;100.00;52590.78;5034003;28;20683;-79
2021/01/09 09:52:00;;;;;;;15.47;11.27;;;;;;;-144.99;100.00;52562.25;5037222;28;20637;-79
2021/01/09 09:54:31;;;;;;;15.27;10.97;;;;;;;-144.99;100.00;52598.94;5038346;28;20648;-79
2021/01/09 09:56:58;;;;;;;14.73;10.90;;;;;;;-144.99;100.00;52607.09;5036125;28;21257;-75
2021/01/09 09:59:29;;;;;;;20.63;12.70;;;;;;;-144.99;100.00;52594.84;5031753;28;20762;-77
2021/01/09 10:01:58;;;;;;;17.77;11.63;;;;;;;-144.99;100.00;52552.03;5033294;28;20701;-78
2021/01/09 10:04:25;;;;;;;14.63;11.07;;;;;;;-144.99;100.00;52590.78;5031015;28;20639;-77
2021/01/09 10:06:51;;;;;;;15.17;9.27;;;;;;;-144.99;100.00;52541.84;5033527;28;20631;-76
2021/01/09 10:09:18;;;;;;;15.93;9.57;;;;;;;-144.99;100.00;52588.75;5035982;28;20664;-77
2021/01/09 10:11:47;;;;;;;13.67;11.03;;;;;;;-144.99;100.00;52566.31;5042138;28;20731;-76
2021/01/09 10:14:13;;;;;;;14.80;9.30;;;;;;;-144.99;100.00;52558.16;5034202;28;20631;-77
2021/01/09 10:16:40;;;;;;;17.43;11.73;;;;;;;-144.99;100.00;52578.53;5032058;28;20653;-78
2021/01/09 10:19:09;;;;;;;14.93;10.97;;;;;;;-144.99;100.00;52562.25;5030875;28;20645;-77
2021/01/09 10:21:36;;;;;;;17.73;12.10;;;;;;;-144.99;100.00;52570.38;5032607;28;20736;-76
2021/01/09 10:24:03;;;;;;;16.40;12.07;;;;;;;-144.99;100.00;52556.13;5038024;28;20612;-78
2021/01/09 10:26:30;;;;;;;23.03;14.20;;;;;;;-144.99;100.00;52554.09;5023198;28;20636;-77
2021/01/09 10:28:57;;;;;;;19.83;12.70;;;;;;;-144.99;100.00;52541.84;5039985;28;20653;-77
2021/01/09 10:31:31;;;;;;;17.63;12.20;;;;;;;-144.99;100.00;52545.94;5025235;28;20687;-78
2021/01/09 10:33:59;;;;;;;17.70;12.40;;;;;;;-144.99;100.00;52578.53;5024942;28;20723;-77
2021/01/09 10:36:30;;;;;;;18.83;13.50;;;;;;;-144.99;100.00;52550.00;5032826;28;20700;-77
2021/01/09 10:38:56;;;;;;;21.93;14.87;;;;;;;-144.99;100.00;52594.84;5032803;28;20736;-77
2021/01/09 10:41:22;;;;;;;23.67;15.13;;;;;;;-144.99;100.00;52582.63;5032458;28;20636;-77
2021/01/09 10:43:49;;;;;;;20.13;12.73;;;;;;;-144.99;100.00;52545.94;5032745;28;20648;-76
2021/01/09 10:46:23;;;;;;;21.10;15.40;;;;;;;-144.99;100.00;52558.16;5032357;28;20621;-77
2021/01/09 10:48:53;;;;;;;25.47;16.23;;;;;;;-144.99;100.00;52572.44;5032045;28;20649;-78
2021/01/09 10:51:21;;;;;;;18.87;15.13;;;;;;;-144.99;100.00;52590.78;5033108;28;20656;-76
2021/01/09 10:53:48;;;;;;;22.13;15.17;;;;;;;-144.99;100.00;52586.69;5031233;28;20637;-77
2021/01/09 10:56:14;;;;;;;22.47;16.00;;;;;;;-144.99;100.00;52572.44;5032904;28;20719;-79
2021/01/09 10:58:41;;;;;;;24.80;15.83;;;;;;;-144.99;100.00;52594.84;5033269;28;20767;-76
2021/01/09 11:01:08;;;;;;;24.83;17.10;;;;;;;-144.99;100.00;52568.34;5032994;28;20628;-77
2021/01/09 11:03:35;;;;;;;21.23;15.30;;;;;;;-144.99;100.00;52517.41;5029445;28;20632;-76